Time;durP1;ratioP1;P1;durP2;ratioP2;P2;SDS_P1;SDS_P2;PMS_P1;PMS_P2;Temp;Humidity;BMP_temperature;BMP_pressure;BME280_temperature;BME280_humidity;BME280_pressure;Samples;Min_cycle;Max_cycle;Signal;HPM_P1;HPM_P2
2022/02/22 00:00:17;;;;;;;47.40;31.70;;;;;;;3.32;66.56;96146.28;109772;1250;67842;-62
2022/02/22 00:03:07;;;;;;;34.20;23.50;;;;;;;3.27;67.33;96142.99;109706;1251;68660;-65
2022/02/22 00:05:38;;;;;;;;;;;;;;;3.30;65.85;96145.20;109717;1250;59713;-63
2022/02/22 00:08:07;;;;;;;;;;;;;;;3.32;65.28;96144.74;109697;1250;59704;-64
2022/02/22 00:10:37;;;;;;;34.20;22.20;;;;;;;3.33;65.66;96146.26;109737;1251;70995;-61
2022/02/22 00:13:06;;;;;;;50.30;34.10;;;;;;;3.31;67.65;96144.09;109825;1250;67872;-63
2022/02/22 00:15:36;;;;;;;41.20;29.10;;;;;;;3.27;68.46;96144.55;109698;1250;69312;-63
2022/02/22 00:18:06;;;;;;;50.00;32.70;;;;;;;3.25;69.59;96148.83;109767;1250;59710;-62
2022/02/22 00:20:36;;;;;;;49.20;34.00;;;;;;;3.23;70.15;96146.00;109888;1250;59635;-63
2022/02/22 00:23:07;;;;;;;51.30;36.30;;;;;;;3.20;71.12;96145.51;109660;1250;71362;-64
2022/02/22 00:25:38;;;;;;;58.00;36.80;;;;;;;3.10;72.19;96144.45;109873;1250;67795;-65
2022/02/22 00:28:08;;;;;;;50.60;36.40;;;;;;;3.04;73.56;96145.98;109630;1251;68752;-64
2022/02/22 00:30:37;;;;;;;58.10;36.00;;;;;;;3.04;73.70;96152.90;109598;1253;59711;-62
2022/02/22 00:33:06;;;;;;;63.20;41.60;;;;;;;2.99;74.05;96155.59;109634;1251;59741;-64
2022/02/22 00:35:37;;;;;;;49.90;32.10;;;;;;;3.04;72.86;96159.79;109814;1250;71461;-65
2022/02/22 00:38:07;;;;;;;47.00;31.60;;;;;;;3.08;73.33;96155.23;109732;1250;68589;-63
2022/02/22 00:40:37;;;;;;;62.60;39.60;;;;;;;3.13;72.38;96154.23;109783;1250;68578;-61
2022/02/22 00:43:08;;;;;;;43.00;31.40;;;;;;;3.13;73.89;96154.42;109648;1253;59703;-62
2022/02/22 00:45:38;;;;;;;53.60;36.90;;;;;;;3.13;74.29;96157.52;109760;1250;59821;-62
2022/02/22 00:48:08;;;;;;;55.20;36.90;;;;;;;3.12;74.11;96162.08;109775;1250;70684;-62
2022/02/22 00:50:38;;;;;;;62.70;42.80;;;;;;;3.14;74.44;96163.45;109846;1250;69057;-62
2022/02/22 00:53:07;;;;;;;62.70;42.80;;;;;;;3.08;75.17;96168.30;109779;1250;69396;-65
2022/02/22 00:55:38;;;;;;;;;;;;;;;2.97;75.72;96169.48;109771;1250;59701;-62
2022/02/22 00:58:07;;;;;;;59.20;38.90;;;;;;;2.97;76.02;96169.70;109799;1250;59694;-64
2022/02/22 01:00:36;;;;;;;61.80;39.80;;;;;;;2.99;75.46;96171.27;109812;1250;71338;-64
2022/02/22 01:03:06;;;;;;;40.80;27.10;;;;;;;3.02;75.58;96168.70;109879;1249;68700;-63
2022/02/22 01:05:37;;;;;;;61.70;40.00;;;;;;;3.07;74.34;96170.11;109561;1253;69258;-64
2022/02/22 01:08:07;;;;;;;52.10;35.00;;;;;;;3.09;76.45;96170.65;109724;1250;59771;-61
2022/02/22 01:10:38;;;;;;;53.80;36.20;;;;;;;3.10;77.07;96175.06;109590;1251;59773;-63
2022/02/22 01:13:08;;;;;;;55.80;38.00;;;;;;;3.09;78.12;96177.91;109724;1251;71629;-64
2022/02/22 01:15:38;;;;;;;46.30;31.50;;;;;;;3.13;77.32;96175.58;109568;1251;67895;-61
2022/02/22 01:18:08;;;;;;;51.20;38.00;;;;;;;3.18;76.37;96172.00;109595;1251;69853;-64
2022/02/22 01:20:37;;;;;;;55.00;34.20;;;;;;;3.21;77.19;96169.35;109721;1250;59683;-63
2022/02/22 01:23:07;;;;;;;45.60;28.90;;;;;;;3.25;76.14;96171.38;109744;1251;59634;-64
2022/02/22 01:25:37;;;;;;;;;;;;;;;3.30;74.74;96173.98;109874;1250;69957;-64
2022/02/22 01:28:07;;;;;;;38.00;26.90;;;;;;;3.34;74.24;96173.60;109780;1250;67725;-62
2022/02/22 01:30:37;;;;;;;44.90;32.10;;;;;;;3.37;73.54;96172.15;109751;1250;67483;-64
2022/02/22 01:33:07;;;;;;;42.10;28.30;;;;;;;3.39;75.27;96172.01;109800;1250;59764;-62
2022/02/22 01:35:40;;;;;;;32.60;22.70;;;;;;;3.42;74.36;96180.09;109567;1253;59707;-64
2022/02/22 01:38:09;;;;;;;38.10;27.50;;;;;;;3.45;73.21;96177.46;109748;1251;71491;-63
2022/02/22 01:40:39;;;;;;;24.80;18.40;;;;;;;3.48;73.38;96179.76;109738;1251;67696;-64
2022/02/22 01:43:09;;;;;;;34.60;25.40;;;;;;;3.50;72.55;96172.36;109585;1251;68527;-65
2022/02/22 01:45:40;;;;;;;33.50;23.30;;;;;;;3.52;72.50;96171.36;109776;1250;59708;-63
2022/02/22 01:48:10;;;;;;;;;;;;;;;3.54;72.18;96174.17;109671;1250;59708;-62
2022/02/22 01:50:40;;;;;;;37.10;28.10;;;;;;;3.55;73.25;96175.27;109739;1251;71707;-62
2022/02/22 01:53:10;;;;;;;26.10;18.40;;;;;;;3.56;73.20;96176.27;109704;1251;68716;-63
2022/02/22 01:55:42;;;;;;;29.50;22.10;;;;;;;3.58;72.91;96178.91;109590;1250;69251;-62
2022/02/22 01:58:12;;;;;;;41.90;28.00;;;;;;;3.59;73.60;96175.55;109546;1250;59786;-63
2022/02/22 02:00:45;;;;;;;26.10;18.40;;;;;;;3.61;74.97;96173.06;109571;1250;59683;-63
2022/02/22 02:03:16;;;;;;;30.80;20.60;;;;;;;3.63;72.64;96172.77;109786;1250;71585;-62
2022/02/22 02:05:47;;;;;;;33.70;22.50;;;;;;;3.65;75.46;96173.48;109985;1248;69782;-64
2022/02/22 02:08:16;;;;;;;36.30;23.70;;;;;;;3.66;74.90;96174.13;110047;1249;68453;-63
2022/02/22 02:10:46;;;;;;;52.60;37.50;;;;;;;3.65;74.90;96177.09;110042;1248;59825;-63
2022/02/22 02:13:16;;;;;;;;;;;;;;;3.63;74.36;96177.08;110081;1249;59719;-62
2022/02/22 02:15:46;;;;;;;27.10;20.50;;;;;;;3.62;72.83;96180.88;109767;1249;71394;-62
2022/02/22 02:18:17;;;;;;;31.30;21.50;;;;;;;3.62;72.43;96180.92;109794;1250;67296;-62
2022/02/22 02:20:47;;;;;;;24.30;18.50;;;;;;;3.65;73.01;96181.56;109748;1249;69303;-64
2022/02/22 02:23:18;;;;;;;20.10;13.30;;;;;;;3.70;74.63;96182.83;109836;1250;59741;-63
2022/02/22 02:25:49;;;;;;;14.90;10.60;;;;;;;3.73;75.45;96182.59;109984;1250;59735;-61
2022/02/22 02:28:21;;;;;;;17.70;10.60;;;;;;;3.77;76.25;96183.52;109906;1250;71555;-64
2022/02/22 02:30:51;;;;;;;18.00;11.10;;;;;;;3.81;76.97;96185.02;109747;1250;67844;-62
2022/02/22 02:33:22;;;;;;;14.90;10.30;;;;;;;3.86;77.34;96185.88;109785;1250;69466;-64
2022/02/22 02:35:53;;;;;;;13.40;9.60;;;;;;;3.88;77.82;96182.65;109786;1249;59670;-62
2022/02/22 02:38:24;;;;;;;15.60;9.60;;;;;;;3.89;77.77;96180.34;109697;1250;59709;-65
2022/02/22 02:40:53;;;;;;;16.60;11.20;;;;;;;3.91;78.49;96186.23;109877;1249;71591;-63
2022/02/22 02:43:24;;;;;;;17.50;10.60;;;;;;;3.91;78.40;96187.13;109219;1250;915733;-62
2022/02/22 02:45:56;;;;;;;13.10;9.10;;;;;;;3.93;77.98;96193.84;109699;1251;68532;-63
2022/02/22 02:48:27;;;;;;;15.20;10.30;;;;;;;3.95;78.35;96193.17;109763;1250;59704;-63
2022/02/22 02:50:58;;;;;;;16.80;10.70;;;;;;;3.96;79.55;96198.14;109740;1250;59686;-62
2022/02/22 02:53:28;;;;;;;17.00;11.10;;;;;;;3.98;79.42;96201.14;109817;1250;71522;-62
2022/02/22 02:55:58;;;;;;;;;;;;;;;3.97;79.15;96202.39;109485;1250;67857;-64
2022/02/22 02:58:28;;;;;;;16.90;9.40;;;;;;;3.98;79.83;96206.27;109788;1250;69417;-63
2022/02/22 03:00:58;;;;;;;17.90;10.80;;;;;;;3.95;80.74;96205.65;109845;1250;60150;-62
2022/02/22 03:03:29;;;;;;;15.40;9.40;;;;;;;3.92;80.30;96203.56;109797;1250;60141;-61
2022/02/22 03:05:59;;;;;;;18.50;10.60;;;;;;;3.92;79.63;96210.28;109849;1250;70773;-64
2022/02/22 03:08:31;;;;;;;17.50;11.10;;;;;;;3.91;79.79;96214.70;109761;1249;68213;-63
2022/02/22 03:11:01;;;;;;;16.00;10.70;;;;;;;3.91;79.82;96218.67;109780;1250;69687;-62
2022/02/22 03:13:32;;;;;;;18.40;11.10;;;;;;;3.91;79.90;96220.04;109757;1251;59755;-61
2022/02/22 03:16:03;;;;;;;19.10;12.20;;;;;;;3.87;80.62;96218.02;109805;1249;59715;-62
2022/02/22 03:18:33;;;;;;;19.80;12.00;;;;;;;3.84;81.08;96222.20;109749;1251;71453;-62
2022/02/22 03:21:03;;;;;;;;;;;;;;;3.84;80.70;96225.79;109821;1249;68558;-63
2022/02/22 03:23:35;;;;;;;23.30;12.90;;;;;;;3.83;80.40;96222.08;109863;1250;68905;-62
2022/02/22 03:26:05;;;;;;;23.20;12.30;;;;;;;3.80;80.80;96227.11;109750;1250;59724;-63
2022/02/22 03:28:36;;;;;;;16.50;10.00;;;;;;;3.74;82.27;96228.00;110001;1250;59694;-65
2022/02/22 03:31:06;;;;;;;15.00;9.40;;;;;;;3.77;80.99;96236.46;109893;1250;71374;-65
2022/02/22 03:33:38;;;;;;;14.10;9.40;;;;;;;3.73;80.74;96237.04;109793;1249;68513;-64
2022/02/22 03:36:07;;;;;;;;;;;;;;;3.71;80.79;96240.79;109638;1250;68736;-61
2022/02/22 03:38:38;;;;;;;16.10;9.50;;;;;;;3.70;80.53;96242.91;109855;1250;59689;-60
2022/02/22 03:41:08;;;;;;;12.60;8.00;;;;;;;3.70;80.54;96249.48;109737;1251;59704;-62
2022/02/22 03:43:40;;;;;;;11.60;6.10;;;;;;;3.64;80.33;96255.73;109527;1250;71117;-62
2022/02/22 03:46:10;;;;;;;12.40;7.30;;;;;;;3.63;80.08;96258.56;109867;1249;68499;-62
2022/02/22 03:48:41;;;;;;;12.40;6.90;;;;;;;3.56;79.85;96257.40;109819;1250;68637;-62
2022/02/22 03:51:11;;;;;;;12.20;7.50;;;;;;;3.51;79.90;96261.50;109870;1250;59764;-61
2022/02/22 03:53:43;;;;;;;9.90;6.60;;;;;;;3.44;80.84;96262.34;109805;1250;59706;-61
2022/02/22 03:56:13;;;;;;;12.30;7.10;;;;;;;3.38;80.31;96261.66;109812;1250;70754;-63
2022/02/22 03:58:44;;;;;;;12.80;6.60;;;;;;;3.36;80.03;96264.89;109732;1250;68535;-63
2022/02/22 04:01:13;;;;;;;10.80;5.80;;;;;;;3.34;80.47;96272.60;109644;1250;69707;-65
2022/02/22 04:03:44;;;;;;;8.30;4.80;;;;;;;3.30;80.35;96280.76;109704;1250;59710;-65
2022/02/22 04:06:14;;;;;;;9.80;5.80;;;;;;;3.28;79.98;96283.08;109719;1250;59691;-60
2022/02/22 04:08:46;;;;;;;8.60;5.40;;;;;;;3.28;80.09;96284.84;109746;1250;71509;-64
2022/02/22 04:11:16;;;;;;;10.00;5.20;;;;;;;3.26;80.31;96289.27;109865;1250;67667;-61
2022/02/22 04:13:48;;;;;;;8.50;4.50;;;;;;;3.23;79.91;96291.52;109839;1249;68603;-64
2022/02/22 04:16:17;;;;;;;9.30;5.40;;;;;;;3.23;79.99;96294.11;109796;1250;59751;-62
2022/02/22 04:18:47;;;;;;;12.00;5.70;;;;;;;3.20;80.40;96293.44;109910;1250;59751;-64
2022/02/22 04:21:17;;;;;;;10.00;5.80;;;;;;;3.15;80.87;96296.50;109777;1250;71525;-65
2022/02/22 04:23:47;;;;;;;11.70;5.80;;;;;;;3.17;80.51;96297.20;109679;1250;68607;-63
2022/02/22 04:26:16;;;;;;;10.20;5.40;;;;;;;3.16;80.70;96302.98;109727;1250;69553;-64
2022/02/22 04:28:46;;;;;;;10.80;6.30;;;;;;;3.14;80.76;96307.05;109836;1250;59738;-64
2022/02/22 04:31:15;;;;;;;9.80;5.30;;;;;;;3.11;80.76;96314.33;109862;1250;59671;-62
2022/02/22 04:33:45;;;;;;;10.30;6.10;;;;;;;3.10;80.93;96315.91;109797;1250;71575;-61
2022/02/22 04:36:15;;;;;;;12.90;6.70;;;;;;;3.07;80.96;96319.85;109838;1250;68838;-62
2022/02/22 04:38:45;;;;;;;11.40;6.00;;;;;;;3.05;80.98;96325.34;109755;1250;69574;-63
2022/02/22 04:41:14;;;;;;;11.70;6.20;;;;;;;3.04;81.02;96330.36;109746;1250;59777;-62
2022/02/22 04:43:44;;;;;;;11.70;6.00;;;;;;;3.01;80.95;96329.70;109652;1250;60623;-62
2022/02/22 04:46:14;;;;;;;10.00;5.30;;;;;;;2.99;80.93;96328.92;109811;1250;71366;-62
2022/02/22 04:48:44;;;;;;;12.00;6.90;;;;;;;2.99;81.08;96328.61;109846;1250;68642;-63
2022/02/22 04:51:14;;;;;;;11.80;6.30;;;;;;;2.98;81.11;96327.98;109708;1250;68883;-62
2022/02/22 04:53:44;;;;;;;12.00;6.30;;;;;;;2.98;81.05;96330.40;109770;1250;60414;-62
2022/02/22 04:56:13;;;;;;;14.00;8.30;;;;;;;2.98;81.11;96331.26;109746;1250;59720;-63
2022/02/22 04:58:43;;;;;;;11.20;6.10;;;;;;;2.96;81.13;96335.14;109565;1250;70798;-62
2022/02/22 05:01:13;;;;;;;14.50;7.30;;;;;;;2.96;80.87;96336.00;109803;1249;68100;-61
2022/02/22 05:03:42;;;;;;;12.20;6.00;;;;;;;2.96;80.73;96340.64;109757;1250;69668;-61
2022/02/22 05:06:12;;;;;;;12.20;6.80;;;;;;;2.99;81.01;96350.80;109881;1248;60047;-62
2022/02/22 05:08:42;;;;;;;11.50;6.50;;;;;;;2.98;80.91;96349.96;109834;1250;59688;-62
2022/02/22 05:11:12;;;;;;;10.90;6.10;;;;;;;2.95;81.55;96353.79;109784;1248;71181;-62
2022/02/22 05:13:42;;;;;;;10.10;6.10;;;;;;;2.94;81.24;96355.23;109730;1250;67820;-62
2022/02/22 05:16:11;;;;;;;16.30;9.00;;;;;;;2.88;82.67;96358.52;109820;1249;69507;-63
2022/02/22 05:18:41;;;;;;;11.30;6.00;;;;;;;2.83;83.32;96363.63;109734;1250;59757;-62
2022/02/22 05:21:13;;;;;;;10.00;5.70;;;;;;;2.84;82.05;96370.27;109852;1250;59741;-59
2022/02/22 05:23:43;;;;;;;13.60;7.80;;;;;;;2.82;82.82;96370.38;109664;1250;71653;-61
2022/02/22 05:26:13;;;;;;;11.70;5.90;;;;;;;2.80;83.14;96376.03;109871;1250;68565;-63
2022/02/22 05:28:44;;;;;;;12.20;6.60;;;;;;;2.81;82.93;96377.84;109942;1249;68614;-62
2022/02/22 05:31:16;;;;;;;14.50;9.50;;;;;;;2.84;82.34;96377.15;109671;1251;59805;-62
2022/02/22 05:33:46;;;;;;;16.70;8.10;;;;;;;2.85;82.44;96376.79;109898;1249;59741;-63
2022/02/22 05:36:19;;;;;;;14.80;7.90;;;;;;;2.89;81.74;96372.55;109865;1250;71444;-62
2022/02/22 05:38:49;;;;;;;12.80;6.70;;;;;;;2.93;82.59;96370.27;109784;1250;68608;-64
2022/02/22 05:41:18;;;;;;;11.60;6.60;;;;;;;2.97;81.70;96371.91;109748;1250;69399;-62
2022/02/22 05:43:49;;;;;;;14.50;7.20;;;;;;;3.02;81.17;96380.23;109720;1250;59738;-63
2022/02/22 05:46:19;;;;;;;11.40;6.30;;;;;;;3.07;81.09;96377.68;109821;1249;59695;-63
2022/02/22 05:48:49;;;;;;;13.30;7.20;;;;;;;3.12;80.98;96380.35;109789;1250;70945;-62
2022/02/22 05:51:18;;;;;;;19.70;10.00;;;;;;;3.15;81.08;96381.52;109796;1250;67801;-61
2022/02/22 05:53:48;;;;;;;14.70;7.90;;;;;;;3.16;81.49;96384.72;109732;1248;69386;-61
2022/02/22 05:56:18;;;;;;;14.50;7.60;;;;;;;3.20;81.19;96389.84;109717;1250;59957;-64
2022/02/22 05:58:48;;;;;;;15.20;8.50;;;;;;;3.22;81.01;96390.89;109733;1250;59758;-63
2022/02/22 06:01:18;;;;;;;16.80;9.70;;;;;;;3.26;81.19;96392.75;109863;1249;70786;-63
2022/02/22 06:03:55;;;;;;;22.00;11.70;;;;;;;3.28;81.35;96399.70;109617;1250;67807;-62
2022/02/22 06:06:26;;;;;;;15.30;8.60;;;;;;;3.31;81.48;96401.92;109608;1250;69428;-63
2022/02/22 06:09:07;;;;;;;17.30;9.40;;;;;;;3.31;81.61;96410.18;109759;1250;59750;-62
2022/02/22 06:11:36;;;;;;;;;;;;;;;3.35;81.95;96412.71;109887;1250;59676;-63
2022/02/22 06:14:06;;;;;;;18.40;10.40;;;;;;;3.36;82.23;96419.20;109689;1250;71406;-63
2022/02/22 06:16:35;;;;;;;18.70;10.30;;;;;;;3.36;82.15;96427.29;109913;1249;68702;-63
2022/02/22 06:19:04;;;;;;;22.60;10.80;;;;;;;3.36;82.24;96428.30;109784;1250;69670;-64
2022/02/22 06:21:33;;;;;;;16.40;9.00;;;;;;;3.37;82.16;96426.18;109755;1250;59908;-64
2022/02/22 06:24:08;;;;;;;15.10;7.90;;;;;;;3.35;82.10;96424.95;109881;1250;59694;-62
2022/02/22 06:26:45;;;;;;;16.50;9.00;;;;;;;3.38;81.72;96420.79;109816;1250;70793;-65
2022/02/22 06:29:14;;;;;;;19.30;10.60;;;;;;;3.40;81.61;96424.29;109861;1250;68660;-62
2022/02/22 06:31:43;;;;;;;23.60;12.30;;;;;;;3.41;81.76;96428.16;109778;1250;68581;-62
2022/02/22 06:34:13;;;;;;;21.10;11.50;;;;;;;3.41;82.74;96427.68;109842;1250;59693;-63
2022/02/22 06:36:43;;;;;;;25.40;11.60;;;;;;;3.41;82.78;96432.84;109865;1249;59638;-63
2022/02/22 06:39:12;;;;;;;28.90;13.70;;;;;;;3.43;82.45;96431.90;109895;1250;71368;-64
2022/02/22 06:41:41;;;;;;;22.90;12.80;;;;;;;3.41;83.60;96434.92;109979;1250;68629;-61
2022/02/22 06:44:11;;;;;;;19.90;11.00;;;;;;;3.43;82.98;96437.53;109755;1250;69635;-63
2022/02/22 06:46:41;;;;;;;12.90;7.60;;;;;;;3.46;82.98;96438.23;109787;1250;59682;-63
2022/02/22 06:49:10;;;;;;;13.90;7.70;;;;;;;3.52;81.81;96442.16;109812;1250;59687;-63
2022/02/22 06:51:40;;;;;;;20.50;11.30;;;;;;;3.57;81.39;96445.67;109828;1250;71529;-62
2022/02/22 06:54:10;;;;;;;19.60;11.00;;;;;;;3.60;82.65;96452.92;109875;1250;67958;-63
2022/02/22 06:56:39;;;;;;;27.00;14.50;;;;;;;3.59;83.26;96457.28;109819;1250;68756;-62
2022/02/22 06:59:08;;;;;;;23.60;11.10;;;;;;;3.52;84.72;96461.32;109788;1250;59703;-62
2022/02/22 07:01:38;;;;;;;22.70;11.30;;;;;;;3.57;82.89;96463.04;109774;1250;59717;-63
2022/02/22 07:04:07;;;;;;;34.50;18.80;;;;;;;3.61;82.74;96470.23;109846;1250;71580;-64
2022/02/22 07:06:37;;;;;;;33.50;18.60;;;;;;;3.56;84.89;96478.10;109818;1250;68745;-63
2022/02/22 07:09:07;;;;;;;32.20;18.80;;;;;;;3.59;84.73;96478.46;109864;1249;69274;-63
2022/02/22 07:11:36;;;;;;;32.50;18.20;;;;;;;3.57;84.86;96479.62;110084;1249;60260;-61
2022/02/22 07:14:06;;;;;;;32.30;17.50;;;;;;;3.57;84.94;96480.95;109780;1250;59680;-64
2022/02/22 07:16:37;;;;;;;35.60;19.90;;;;;;;3.62;85.08;96485.58;109779;1250;70587;-63
2022/02/22 07:19:06;;;;;;;31.40;17.20;;;;;;;3.65;85.21;96488.95;109783;1250;67702;-62
2022/02/22 07:21:37;;;;;;;37.30;20.10;;;;;;;3.70;85.29;96496.60;109761;1250;69560;-63
2022/02/22 07:24:07;;;;;;;34.50;17.40;;;;;;;3.72;85.36;96496.44;109790;1250;59758;-64
2022/02/22 07:26:39;;;;;;;35.20;19.20;;;;;;;3.78;84.99;96494.38;109943;1250;59684;-64
2022/02/22 07:29:08;;;;;;;25.10;14.70;;;;;;;3.82;84.79;96490.17;109927;1250;71463;-62
2022/02/22 07:31:40;;;;;;;26.50;14.70;;;;;;;3.87;84.16;96488.84;109665;1251;68133;-61
2022/02/22 07:34:10;;;;;;;35.00;18.20;;;;;;;3.96;83.77;96491.59;109761;1250;68633;-63
2022/02/22 07:36:42;;;;;;;32.20;16.80;;;;;;;4.00;84.14;96492.67;109831;1250;59766;-62
2022/02/22 07:39:12;;;;;;;34.80;18.10;;;;;;;3.99;83.63;96498.26;109853;1249;60139;-63
2022/02/22 07:41:44;;;;;;;33.70;18.30;;;;;;;4.04;83.72;96505.91;109872;1249;70783;-61
2022/02/22 07:44:14;;;;;;;;;;;;;;;4.05;83.79;96516.85;109573;1250;68428;-62
2022/02/22 07:46:44;;;;;;;35.30;19.80;;;;;;;3.98;84.41;96523.70;109707;1250;69508;-62
2022/02/22 07:49:14;;;;;;;39.80;20.70;;;;;;;4.03;84.65;96528.73;109822;1250;59763;-65
2022/02/22 07:51:45;;;;;;;38.40;21.00;;;;;;;3.99;84.99;96542.92;109913;1250;59685;-63
2022/02/22 07:54:14;;;;;;;32.90;18.40;;;;;;;4.09;84.34;96554.58;109646;1250;70780;-62
2022/02/22 07:56:44;;;;;;;26.50;14.80;;;;;;;4.16;83.63;96565.34;109954;1249;68598;-64
2022/02/22 07:59:17;;;;;;;39.70;19.60;;;;;;;4.23;82.91;96571.10;109648;1250;68669;-63
2022/02/22 08:01:50;;;;;;;30.20;17.10;;;;;;;4.11;83.53;96576.35;109675;1250;59773;-63
2022/02/22 08:04:21;;;;;;;27.10;14.30;;;;;;;4.23;83.02;96585.48;109761;1251;59693;-63
2022/02/22 08:06:53;;;;;;;32.60;17.60;;;;;;;4.32;82.45;96590.95;109611;1250;72603;-65
2022/02/22 08:09:25;;;;;;;25.60;14.80;;;;;;;4.38;81.99;96594.04;109653;1250;67745;-65
2022/02/22 08:11:58;;;;;;;33.30;18.10;;;;;;;4.34;82.11;96594.59;109633;1250;68514;-63
2022/02/22 08:14:30;;;;;;;28.40;15.20;;;;;;;4.24;82.50;96600.40;109460;1253;59696;-64
2022/02/22 08:17:03;;;;;;;30.90;17.50;;;;;;;4.22;82.28;96603.64;109443;1253;59697;-65
2022/02/22 08:19:34;;;;;;;34.00;19.30;;;;;;;4.11;82.78;96605.48;109641;1250;70692;-67
2022/02/22 08:22:04;;;;;;;25.80;14.30;;;;;;;4.05;82.95;96606.66;109820;1250;67825;-65
2022/02/22 08:24:41;;;;;;;30.80;16.20;;;;;;;4.10;82.59;96611.09;109734;1250;69431;-65
2022/02/22 08:27:14;;;;;;;34.50;17.30;;;;;;;4.15;82.47;96614.58;109628;1250;59773;-65
2022/02/22 08:29:46;;;;;;;28.00;14.40;;;;;;;4.17;82.45;96610.15;109619;1250;59684;-66
2022/02/22 08:32:18;;;;;;;35.20;18.30;;;;;;;4.18;82.59;96609.55;109529;1250;71783;-66
2022/02/22 08:34:52;;;;;;;35.90;19.70;;;;;;;4.13;82.80;96616.06;109548;1250;68866;-67
2022/02/22 08:37:24;;;;;;;24.80;14.20;;;;;;;4.10;82.85;96617.27;109492;1250;69559;-64
2022/02/22 08:39:56;;;;;;;33.80;19.80;;;;;;;4.18;82.24;96618.02;109708;1250;59734;-67
2022/02/22 08:42:31;;;;;;;33.10;18.40;;;;;;;4.10;83.20;96623.84;109493;1250;59752;-65
2022/02/22 08:45:26;;;;;;;32.70;16.70;;;;;;;4.06;83.65;96624.73;109638;1250;70653;-64
2022/02/22 08:48:14;;;;;;;36.00;18.40;;;;;;;4.07;84.04;96629.15;109678;1252;67924;-64
2022/02/22 08:50:47;;;;;;;39.10;19.90;;;;;;;4.13;84.37;96630.91;109435;1250;69263;-64
2022/02/22 08:53:20;;;;;;;34.90;19.60;;;;;;;4.19;83.34;96633.80;109641;1252;59703;-66
2022/02/22 08:55:53;;;;;;;32.20;17.70;;;;;;;4.22;83.31;96638.16;109453;1250;59755;-63
2022/02/22 08:58:22;;;;;;;34.80;19.80;;;;;;;4.25;83.01;96645.84;109745;1250;71559;-66
2022/02/22 09:00:51;;;;;;;27.70;15.20;;;;;;;4.29;83.32;96646.83;109785;1250;67625;-64
2022/02/22 09:03:21;;;;;;;32.40;19.60;;;;;;;4.31;82.25;96647.25;109734;1250;69528;-61
2022/02/22 09:05:50;;;;;;;30.80;17.00;;;;;;;4.31;82.47;96647.60;109787;1250;59772;-66
2022/02/22 09:08:22;;;;;;;24.70;14.50;;;;;;;4.43;81.29;96648.22;109894;1250;59679;-65
2022/02/22 09:10:53;;;;;;;24.70;13.40;;;;;;;4.57;80.80;96646.70;109658;1250;70865;-66
2022/02/22 09:13:24;;;;;;;29.90;16.80;;;;;;;4.73;80.47;96645.91;109667;1251;69749;-66
2022/02/22 09:15:55;;;;;;;23.90;13.30;;;;;;;4.90;79.69;96641.92;109621;1250;68740;-63
2022/02/22 09:18:26;;;;;;;23.50;12.40;;;;;;;5.10;79.53;96646.51;109850;1250;59687;-65
2022/02/22 09:20:56;;;;;;;18.80;11.60;;;;;;;5.33;78.91;96649.20;109633;1253;59726;-65
2022/02/22 09:23:30;;;;;;;22.80;13.30;;;;;;;5.52;78.03;96647.85;109925;1251;70785;-65
2022/02/22 09:26:01;;;;;;;26.80;15.30;;;;;;;5.67;77.49;96646.48;109754;1251;67851;-65
2022/02/22 09:28:32;;;;;;;23.00;12.40;;;;;;;5.78;77.29;96649.05;109653;1251;68594;-66
2022/02/22 09:31:08;;;;;;;20.10;11.20;;;;;;;5.87;77.02;96650.73;109602;1253;59704;-66
2022/02/22 09:33:41;;;;;;;23.40;13.30;;;;;;;5.92;76.67;96654.77;109631;1253;59730;-66
2022/02/22 09:36:12;;;;;;;24.70;13.00;;;;;;;5.92;75.97;96657.31;109585;1253;71875;-65
2022/02/22 09:38:44;;;;;;;20.60;12.40;;;;;;;5.99;76.05;96657.08;109499;1253;68588;-65
2022/02/22 09:41:16;;;;;;;23.10;13.50;;;;;;;6.03;75.50;96654.34;109508;1250;69538;-66
2022/02/22 09:43:47;;;;;;;25.50;14.20;;;;;;;6.01;74.94;96651.52;109819;1250;59729;-64
2022/02/22 09:46:23;;;;;;;22.10;12.90;;;;;;;5.99;74.99;96654.08;109839;1250;59688;-65
2022/02/22 09:48:54;;;;;;;23.90;13.50;;;;;;;5.97;74.69;96652.67;109674;1252;71789;-65
2022/02/22 09:51:25;;;;;;;23.30;12.10;;;;;;;5.83;73.61;96653.58;109661;1250;67692;-65
2022/02/22 09:53:56;;;;;;;20.50;11.20;;;;;;;5.84;73.95;96657.69;109543;1250;68847;-64
2022/02/22 09:56:31;;;;;;;19.40;10.90;;;;;;;5.85;73.67;96658.60;109682;1250;59755;-65
2022/02/22 09:59:03;;;;;;;20.60;11.40;;;;;;;5.90;73.32;96658.84;109645;1250;59742;-63
2022/02/22 10:01:42;;;;;;;17.80;10.60;;;;;;;5.99;73.47;96658.25;109552;1250;71574;-65
2022/02/22 10:04:14;;;;;;;16.90;10.00;;;;;;;6.18;72.79;96657.54;109484;1250;67515;-66
2022/02/22 10:06:45;;;;;;;16.50;9.30;;;;;;;6.42;72.02;96654.17;109759;1250;69262;-65
2022/02/22 10:09:17;;;;;;;17.50;10.90;;;;;;;6.80;71.62;96657.75;109590;1253;59740;-66
2022/02/22 10:11:50;;;;;;;15.40;9.70;;;;;;;7.20;69.77;96654.42;109535;1251;59835;-66
2022/02/22 10:14:27;;;;;;;15.70;10.20;;;;;;;7.47;68.11;96653.52;109668;1250;70574;-66
2022/02/22 10:16:59;;;;;;;18.10;10.90;;;;;;;7.62;66.64;96648.25;109654;1253;68716;-65
2022/02/22 10:19:34;;;;;;;16.10;10.40;;;;;;;7.65;65.84;96651.52;109669;1253;69844;-66
2022/02/22 10:22:08;;;;;;;15.50;9.70;;;;;;;7.99;66.10;96654.38;109541;1250;59742;-67
2022/02/22 10:24:40;;;;;;;17.10;9.70;;;;;;;8.55;63.92;96653.53;109413;1250;59692;-66
2022/02/22 10:27:11;;;;;;;16.10;9.80;;;;;;;8.63;63.64;96660.17;109649;1252;71515;-65
2022/02/22 10:29:43;;;;;;;17.30;10.30;;;;;;;8.59;62.35;96657.70;109449;1253;69180;-65
2022/02/22 10:32:15;;;;;;;14.00;8.90;;;;;;;8.68;62.49;96660.14;109888;1249;68663;-69
2022/02/22 10:34:48;;;;;;;12.40;8.00;;;;;;;9.12;61.89;96662.41;109768;1250;59683;-64
2022/02/22 10:37:22;;;;;;;12.80;7.80;;;;;;;10.02;60.49;96659.88;109610;1251;59695;-67
2022/02/22 10:40:07;;;;;;;15.00;8.90;;;;;;;11.01;57.80;96659.61;109607;1250;70875;-66
2022/02/22 10:42:40;;;;;;;12.80;8.10;;;;;;;11.91;53.95;96657.45;109627;1250;68507;-65
2022/02/22 10:45:13;;;;;;;10.70;6.80;;;;;;;12.35;51.96;96657.80;109581;1250;68644;-65
2022/02/22 10:47:46;;;;;;;12.80;7.50;;;;;;;12.62;50.96;96659.31;109633;1250;59774;-65
2022/02/22 10:50:25;;;;;;;13.00;8.10;;;;;;;12.79;48.68;96658.65;109584;1250;59751;-66
2022/02/22 10:52:56;;;;;;;13.80;8.90;;;;;;;13.10;49.09;96658.98;109495;1253;72765;-66
2022/02/22 10:55:29;;;;;;;11.90;7.30;;;;;;;13.40;48.08;96662.86;109654;1253;67982;-67
2022/02/22 10:58:01;;;;;;;10.50;7.20;;;;;;;13.61;48.17;96657.98;109654;1250;68209;-66
2022/02/22 11:00:32;;;;;;;10.80;7.20;;;;;;;13.73;48.48;96660.80;109554;1251;59732;-68
2022/02/22 11:03:04;;;;;;;9.70;6.80;;;;;;;14.02;48.46;96657.45;109710;1251;59746;-66
2022/02/22 11:05:36;;;;;;;10.60;7.30;;;;;;;14.70;46.59;96656.63;109821;1250;70587;-62
2022/02/22 11:08:07;;;;;;;11.80;8.00;;;;;;;15.28;44.08;96648.81;109926;1250;68588;-62
2022/02/22 11:10:47;;;;;;;10.40;7.90;;;;;;;14.66;42.49;96651.67;109699;1250;68662;-64
2022/02/22 11:13:25;;;;;;;11.20;7.30;;;;;;;14.22;44.04;96653.00;109767;1250;59755;-62
2022/02/22 11:16:17;;;;;;;10.60;6.80;;;;;;;13.63;44.71;96660.62;109849;1250;59677;-66
2022/02/22 11:18:56;;;;;;;10.30;6.90;;;;;;;12.97;45.29;96662.11;109716;1250;71595;-66
2022/02/22 11:21:31;;;;;;;11.10;6.80;;;;;;;12.45;46.71;96660.55;109762;1250;68751;-65
2022/02/22 11:24:06;;;;;;;11.60;7.30;;;;;;;11.92;47.45;96666.05;109956;1250;69429;-66
2022/02/22 11:27:28;;;;;;;12.10;8.60;;;;;;;11.37;48.70;96663.30;109921;1250;59756;-67
2022/02/22 11:30:04;;;;;;;12.60;8.20;;;;;;;10.99;50.31;96668.67;109208;1257;59703;-64
2022/02/22 11:32:57;;;;;;;9.20;6.00;;;;;;;10.72;49.93;96666.77;109157;1257;71543;-62
2022/02/22 11:35:30;;;;;;;10.60;7.50;;;;;;;10.63;49.25;96665.58;109030;1258;68762;-65
2022/02/22 11:38:07;;;;;;;9.10;5.70;;;;;;;10.42;50.14;96660.29;109119;1257;69242;-65
2022/02/22 11:40:40;;;;;;;9.00;6.50;;;;;;;10.36;49.95;96660.73;109143;1258;59854;-63
2022/02/22 11:43:13;;;;;;;;;;;;;;;10.22;50.54;96663.82;109177;1259;59758;-62